Time;durP1;ratioP1;P1;durP2;ratioP2;P2;SDS_P1;SDS_P2;PMS_P1;PMS_P2;Temp;Humidity;BMP_temperature;BMP_pressure;BME280_temperature;BME280_humidity;BME280_pressure;Samples;Min_cycle;Max_cycle;Signal;HPM_P1;HPM_P2
2022/10/05 00:01:02;;;;;;;;;;;;;;;13.88;100.00;99574.63;4994053;28;20112;-87
2022/10/05 00:03:32;;;;;;;;;;;;;;;13.94;100.00;99554.97;5005572;28;19921;-87
2022/10/05 00:06:01;;;;;;;10.95;2.00;;;;;;;13.72;100.00;99542.44;4993038;28;19960;-87
2022/10/05 00:08:34;;;;;;;6.68;1.48;;;;;;;13.44;100.00;99474.22;4993588;28;20062;-87
2022/10/05 00:11:01;;;;;;;7.88;1.42;;;;;;;13.62;100.00;99501.00;5004749;28;20463;-87
2022/10/05 00:13:29;;;;;;;8.05;1.75;;;;;;;13.80;100.00;99519.91;4993441;28;20777;-87
2022/10/05 00:16:15;;;;;;;6.03;1.40;;;;;;;13.87;100.00;99517.69;4994568;28;20054;-88
2022/10/05 00:18:46;;;;;;;8.32;2.08;;;;;;;13.69;100.00;99469.88;4994851;28;20062;-87
2022/10/05 00:21:17;;;;;;;12.60;2.13;;;;;;;13.66;100.00;99464.81;4980507;28;20456;-88
2022/10/05 00:23:44;;;;;;;9.50;2.03;;;;;;;13.23;100.00;99397.66;4988658;28;20049;-87
2022/10/05 00:26:19;;;;;;;5.38;1.40;;;;;;;13.70;100.00;99431.25;5010701;28;20681;-88
2022/10/05 00:28:46;;;;;;;9.60;2.00;;;;;;;13.56;100.00;99408.56;4994963;28;20401;-88
2022/10/05 00:31:20;;;;;;;9.90;1.75;;;;;;;13.89;100.00;99447.41;4993968;28;20054;-87
2022/10/05 00:33:47;;;;;;;7.22;1.65;;;;;;;13.73;100.00;99408.19;4993806;28;20053;-87
2022/10/05 00:36:14;;;;;;;7.80;1.80;;;;;;;13.65;100.00;99377.19;5011966;28;20088;-88
2022/10/05 00:38:41;;;;;;;10.07;1.98;;;;;;;13.89;100.00;99404.47;4994406;28;20045;-88
2022/10/05 00:41:52;;;;;;;6.15;1.52;;;;;;;14.05;100.00;99400.59;4991513;28;20053;-88
2022/10/05 00:44:28;;;;;;;7.07;1.90;;;;;;;14.04;100.00;99388.41;4992336;28;20053;-87
2022/10/05 00:47:42;;;;;;;11.60;2.22;;;;;;;13.95;100.00;99364.53;4993491;28;20115;-88
2022/10/05 00:50:43;;;;;;;11.18;1.88;;;;;;;13.72;100.00;99345.16;4950702;29;20110;-88
2022/10/05 00:53:30;;;;;;;4.80;1.30;;;;;;;13.96;100.00;99347.81;5010929;28;20124;-87
2022/10/05 00:56:18;;;;;;;13.50;2.30;;;;;;;13.69;100.00;99343.63;4999949;28;20050;-87
2022/10/05 00:58:51;;;;;;;6.97;1.70;;;;;;;13.63;100.00;99344.91;4994338;28;20104;-88
2022/10/05 01:01:46;;;;;;;5.35;1.55;;;;;;;13.73;100.00;99334.53;4990070;28;20054;-88
2022/10/05 01:04:31;;;;;;;7.13;1.42;;;;;;;13.52;100.00;99268.56;4983264;28;20050;-88
2022/10/05 01:07:01;;;;;;;7.15;1.20;;;;;;;13.80;100.00;99308.63;4997432;28;20381;-88
2022/10/05 01:09:39;;;;;;;5.90;1.55;;;;;;;13.91;100.00;99295.50;4997334;28;20081;-88
2022/10/05 01:12:34;;;;;;;7.10;1.42;;;;;;;13.80;100.00;99293.69;5009871;28;20056;-88
2022/10/05 01:15:11;;;;;;;7.20;1.40;;;;;;;13.74;100.00;99288.03;4997854;28;20464;-88
2022/10/05 01:18:05;;;;;;;9.82;1.67;;;;;;;13.79;100.00;99296.41;4997518;28;20045;-87
2022/10/05 01:21:04;;;;;;;9.38;1.40;;;;;;;13.65;100.00;99287.78;5012281;28;20487;-88
2022/10/05 01:23:46;;;;;;;8.60;1.83;;;;;;;13.46;100.00;99259.34;4989800;28;20054;-87
2022/10/05 01:26:40;;;;;;;8.77;1.73;;;;;;;12.96;100.00;99208.63;5013422;28;20057;-88
2022/10/05 01:29:30;;;;;;;9.10;1.48;;;;;;;13.43;100.00;99254.31;4996270;28;20054;-87
2022/10/05 01:32:12;;;;;;;5.78;1.40;;;;;;;13.43;100.00;99243.78;4992484;28;20053;-87
2022/10/05 01:34:42;;;;;;;8.15;1.77;;;;;;;13.30;100.00;99235.94;5004610;28;20480;-88
2022/10/05 01:37:21;;;;;;;5.72;1.40;;;;;;;13.27;100.00;99230.06;4997225;28;20049;-88
2022/10/05 01:40:10;;;;;;;6.88;1.50;;;;;;;13.23;100.00;99204.97;4997246;28;20100;-89
2022/10/05 01:43:23;;;;;;;6.05;1.30;;;;;;;13.20;100.00;99194.66;4996581;28;20497;-88
2022/10/05 01:46:22;;;;;;;4.45;1.20;;;;;;;13.07;100.00;99158.78;4995015;28;20049;-87
2022/10/05 01:48:58;;;;;;;7.47;1.50;;;;;;;13.19;100.00;99159.66;4991021;28;20583;-88
2022/10/05 01:51:39;;;;;;;7.00;1.50;;;;;;;13.08;100.00;99134.19;5005164;28;20507;-87
2022/10/05 01:54:51;;;;;;;3.17;1.60;;;;;;;13.34;100.00;99127.97;4995725;28;20058;-88
2022/10/05 01:57:55;;;;;;;7.50;1.50;;;;;;;13.38;100.00;99116.28;4991255;28;20050;-88
2022/10/05 02:00:22;;;;;;;;;;;;;;;13.37;100.00;99117.22;4996861;28;20057;-88
2022/10/05 02:02:54;;;;;;;6.55;1.63;;;;;;;13.35;100.00;99100.72;4995639;28;19925;-87
2022/10/05 02:05:51;;;;;;;5.22;1.48;;;;;;;13.36;100.00;99087.47;4996400;28;20177;-87
2022/10/05 02:08:30;;;;;;;5.82;1.30;;;;;;;13.28;100.00;99067.00;4993552;28;20042;-88
2022/10/05 02:11:06;;;;;;;5.30;1.60;;;;;;;13.51;100.00;99053.94;5013050;28;20084;-88
2022/10/05 02:13:43;;;;;;;4.40;1.25;;;;;;;13.48;100.00;99039.22;5000587;28;20045;-88
2022/10/05 02:16:33;;;;;;;7.13;1.27;;;;;;;13.48;100.00;99026.06;4983954;28;20050;-88
2022/10/05 02:19:41;;;;;;;7.70;1.60;;;;;;;13.54;100.00;99018.66;4993321;28;20058;-88
2022/10/05 02:22:14;;;;;;;4.22;1.58;;;;;;;13.67;100.00;99014.13;4958318;28;20046;-88
2022/10/05 02:24:47;;;;;;;4.97;1.10;;;;;;;13.47;100.00;98984.97;5008830;28;20092;-87
2022/10/05 02:27:23;;;;;;;4.10;1.20;;;;;;;13.65;100.00;98990.59;5013371;28;20046;-88
2022/10/05 02:29:55;;;;;;;4.07;1.20;;;;;;;13.59;100.00;98974.44;4988281;28;20460;-87
2022/10/05 02:32:26;;;;;;;6.17;1.20;;;;;;;13.76;100.00;98981.03;4998429;28;20100;-87
2022/10/05 02:35:00;;;;;;;5.00;1.20;;;;;;;13.78;100.00;98958.88;4995495;28;20493;-87
2022/10/05 02:37:33;;;;;;;2.50;0.80;;;;;;;13.46;100.00;98896.53;5010963;28;20042;-87
2022/10/05 02:40:07;;;;;;;1.70;0.95;;;;;;;14.03;100.00;98946.41;4989227;28;20058;-87
2022/10/05 02:43:06;;;;;;;3.72;1.10;;;;;;;14.03;100.00;98959.56;4995873;28;20472;-87
2022/10/05 02:45:54;;;;;;;4.72;1.10;;;;;;;14.02;100.00;98926.31;4984450;28;20177;-87
2022/10/05 02:48:57;;;;;;;2.38;0.90;;;;;;;13.96;100.00;98906.59;5006527;28;20057;-87
2022/10/05 02:51:39;;;;;;;3.22;0.98;;;;;;;14.32;100.00;98907.19;5002289;28;20058;-86
2022/10/05 02:54:24;;;;;;;3.75;1.10;;;;;;;14.18;100.00;98907.47;4994754;28;20124;-86
2022/10/05 02:57:05;;;;;;;6.63;1.30;;;;;;;14.10;100.00;98891.50;4998535;28;20523;-86
2022/10/05 02:59:32;;;;;;;5.35;1.35;;;;;;;14.45;100.00;98880.69;5009014;28;20123;-86
2022/10/05 03:02:16;;;;;;;14.00;2.90;;;;;;;14.15;100.00;98858.56;4997121;28;20046;-86
2022/10/05 03:05:29;;;;;;;12.77;2.00;;;;;;;14.30;100.00;98834.56;4993959;28;20064;-87
2022/10/05 03:08:13;;;;;;;12.32;2.22;;;;;;;14.52;100.00;98850.25;4935611;29;20102;-87
2022/10/05 03:10:58;;;;;;;15.52;3.60;;;;;;;14.72;100.00;98864.41;4952488;29;20663;-87
2022/10/05 03:13:44;;;;;;;10.90;2.60;;;;;;;14.70;100.00;98839.16;4981383;28;20092;-87
2022/10/05 03:16:33;;;;;;;13.82;2.40;;;;;;;14.86;100.00;98854.50;4995443;28;20393;-87
2022/10/05 03:19:18;;;;;;;16.95;2.95;;;;;;;14.79;100.00;98852.38;4994756;28;20046;-88
2022/10/05 03:22:00;;;;;;;13.80;2.50;;;;;;;14.74;100.00;98851.91;4998782;28;20046;-88
2022/10/05 03:24:35;;;;;;;18.65;3.00;;;;;;;14.77;100.00;98846.41;4995008;28;20041;-87
2022/10/05 03:27:23;;;;;;;15.80;2.78;;;;;;;14.89;100.00;98841.03;4994871;28;20503;-87
2022/10/05 03:30:17;;;;;;;10.95;2.00;;;;;;;15.03;100.00;98848.59;4994967;28;20092;-87
2022/10/05 03:33:20;;;;;;;12.57;2.58;;;;;;;15.03;100.00;98845.94;4995433;28;20107;-87
2022/10/05 03:35:47;;;;;;;12.40;2.63;;;;;;;14.94;100.00;98844.97;4999626;28;20050;-87
2022/10/05 03:38:20;;;;;;;10.73;2.45;;;;;;;14.96;100.00;98843.03;5012369;28;20444;-87
2022/10/05 03:41:05;;;;;;;13.02;2.40;;;;;;;14.58;100.00;98788.34;4981598;28;20104;-86
2022/10/05 03:43:58;;;;;;;7.25;1.73;;;;;;;14.73;100.00;98783.56;4992642;28;20112;-87
2022/10/05 03:47:02;;;;;;;7.93;1.80;;;;;;;14.99;100.00;98837.47;5008033;28;20483;-88
2022/10/05 03:49:44;;;;;;;8.07;1.60;;;;;;;15.01;100.00;98842.63;5010515;28;20495;-88
2022/10/05 03:52:13;;;;;;;6.40;1.85;;;;;;;14.93;100.00;98826.66;5013643;28;20435;-88
2022/10/05 03:54:47;;;;;;;7.38;1.40;;;;;;;14.54;100.00;98803.56;5001479;28;20054;-88
2022/10/05 03:57:20;;;;;;;5.22;1.65;;;;;;;14.87;100.00;98819.25;4994844;28;20095;-88
2022/10/05 03:59:50;;;;;;;;;;;;;;;14.90;100.00;98811.09;4994811;28;20415;-88
2022/10/05 04:02:26;;;;;;;2.72;1.00;;;;;;;14.60;100.00;98770.63;4995876;28;19972;-88
2022/10/05 04:05:11;;;;;;;1.83;0.90;;;;;;;14.81;100.00;98810.91;5002172;28;20049;-88
2022/10/05 04:07:45;;;;;;;2.22;0.90;;;;;;;14.65;100.00;98800.03;4994284;28;20444;-88
2022/10/05 04:10:20;;;;;;;5.00;1.00;;;;;;;14.50;100.00;98781.09;4997324;28;20056;-88
2022/10/05 04:13:08;;;;;;;2.80;0.90;;;;;;;14.33;100.00;98763.25;4997322;28;20046;-88
2022/10/05 04:15:40;;;;;;;2.08;1.00;;;;;;;14.55;100.00;98792.03;5009424;28;20042;-88
2022/10/05 04:18:24;;;;;;;4.28;1.10;;;;;;;14.43;100.00;98782.56;4994724;28;20137;-88
2022/10/05 04:20:57;;;;;;;2.38;0.90;;;;;;;14.16;100.00;98773.38;5012246;28;20116;-88
2022/10/05 04:23:47;;;;;;;3.17;0.93;;;;;;;14.37;100.00;98790.97;4991555;28;20174;-88
2022/10/05 04:26:20;;;;;;;2.78;1.10;;;;;;;14.00;100.00;98733.53;4988167;28;20037;-88
2022/10/05 04:29:17;;;;;;;3.80;0.90;;;;;;;14.50;100.00;98788.97;5010781;28;20097;-88
2022/10/05 04:31:44;;;;;;;1.40;0.77;;;;;;;14.51;100.00;98801.16;4984712;28;20050;-88
2022/10/05 04:34:29;;;;;;;1.67;0.80;;;;;;;14.53;100.00;98795.78;4991113;28;20133;-88
2022/10/05 04:37:05;;;;;;;2.30;0.80;;;;;;;14.60;100.00;98792.50;4991617;28;20048;-88
2022/10/05 04:40:07;;;;;;;1.55;0.70;;;;;;;14.48;100.00;98790.06;4996765;28;20053;-88
2022/10/05 04:42:46;;;;;;;0.73;0.60;;;;;;;14.53;100.00;98798.41;5001215;28;20075;-87
2022/10/05 04:45:44;;;;;;;2.08;0.70;;;;;;;14.56;100.00;98793.72;5011351;28;20097;-88
2022/10/05 04:48:26;;;;;;;2.45;0.70;;;;;;;14.56;100.00;98806.06;4998853;28;20045;-88
2022/10/05 04:51:12;;;;;;;0.98;0.70;;;;;;;14.62;100.00;98816.09;5015931;28;20057;-88
2022/10/05 04:53:50;;;;;;;1.90;0.80;;;;;;;14.53;100.00;98817.66;4969693;28;20498;-88
2022/10/05 04:56:35;;;;;;;1.00;0.70;;;;;;;14.60;100.00;98829.38;4995158;28;20050;-88
2022/10/05 04:59:23;;;;;;;0.90;0.70;;;;;;;14.53;100.00;98838.72;4995364;28;20553;-88
2022/10/05 05:02:08;;;;;;;0.80;0.65;;;;;;;14.51;100.00;98832.75;4998143;28;20054;-88
2022/10/05 05:04:58;;;;;;;4.65;0.88;;;;;;;14.30;100.00;98837.19;4998144;28;20050;-88
2022/10/05 05:07:39;;;;;;;0.60;0.60;;;;;;;14.21;100.00;98841.44;4995443;28;20463;-88
2022/10/05 05:10:28;;;;;;;1.25;0.80;;;;;;;14.09;100.00;98834.53;4998159;28;20381;-88
2022/10/05 05:13:32;;;;;;;0.80;0.70;;;;;;;14.07;100.00;98842.56;4997635;28;20463;-87
2022/10/05 05:16:39;;;;;;;1.08;0.80;;;;;;;14.08;100.00;98844.25;4998194;28;20538;-87
2022/10/05 05:19:11;;;;;;;1.73;0.80;;;;;;;13.61;100.00;98805.06;4957290;28;20050;-88
2022/10/05 05:21:48;;;;;;;0.80;0.80;;;;;;;13.74;100.00;98820.69;4957105;28;20050;-87
2022/10/05 05:24:37;;;;;;;1.60;0.80;;;;;;;13.75;100.00;98811.00;4984335;28;20358;-87
2022/10/05 05:27:22;;;;;;;0.70;0.70;;;;;;;13.76;100.00;98817.94;5020338;28;20531;-88
2022/10/05 05:30:06;;;;;;;1.40;0.85;;;;;;;13.73;100.00;98818.19;4994062;28;20509;-88
2022/10/05 05:33:10;;;;;;;1.40;0.80;;;;;;;13.54;100.00;98829.34;4997648;28;20096;-87
2022/10/05 05:36:03;;;;;;;1.10;0.80;;;;;;;13.43;100.00;98840.72;4992746;28;20480;-87
2022/10/05 05:38:49;;;;;;;1.60;0.80;;;;;;;13.25;100.00;98835.94;5001717;28;20045;-88
2022/10/05 05:41:33;;;;;;;1.35;0.80;;;;;;;13.23;100.00;98826.53;5003868;28;20349;-88
2022/10/05 05:44:20;;;;;;;1.55;0.77;;;;;;;13.15;100.00;98837.63;4997928;28;20045;-86
2022/10/05 05:47:16;;;;;;;1.83;0.80;;;;;;;12.73;100.00;98846.09;5007363;28;20046;-87
2022/10/05 05:50:02;;;;;;;3.67;0.80;;;;;;;12.97;100.00;98863.53;4988861;28;20051;-87
2022/10/05 05:52:39;;;;;;;2.33;1.08;;;;;;;12.69;100.00;98875.31;4993315;28;20112;-85
2022/10/05 05:55:12;;;;;;;;;;;;;;;12.76;100.00;98886.19;5000771;28;20057;-85
2022/10/05 05:58:02;;;;;;;1.70;0.95;;;;;;;12.76;100.00;98896.69;4996354;28;19922;-86
2022/10/05 06:01:03;;;;;;;1.45;0.82;;;;;;;12.50;100.00;98881.97;4991250;28;20412;-85
2022/10/05 06:04:21;;;;;;;1.30;0.73;;;;;;;12.14;100.00;98872.41;4965907;28;20046;-87
2022/10/05 06:10:11;;;;;;;2.85;0.80;;;;;;;12.13;100.00;98920.59;4986026;28;20641;-86
2022/10/05 06:12:42;;;;;;;2.47;0.90;;;;;;;11.57;100.00;98853.75;5009629;28;20657;-89
2022/10/05 06:15:18;;;;;;;1.88;0.90;;;;;;;11.36;100.00;98918.16;5020073;28;20050;-87
2022/10/05 06:17:51;;;;;;;1.98;0.90;;;;;;;11.01;100.00;98887.38;5003117;28;20046;-88
2022/10/05 06:20:34;;;;;;;4.40;1.42;;;;;;;11.36;100.00;98905.88;5017915;28;20068;-87
2022/10/05 06:23:08;;;;;;;2.38;0.90;;;;;;;11.41;100.00;98944.88;5002679;28;20060;-89
2022/10/05 06:25:37;;;;;;;;;;;;;;;11.60;100.00;98957.56;5001103;28;20046;-89
2022/10/05 06:28:08;;;;;;;2.95;1.08;;;;;;;11.31;100.00;98970.03;5017756;28;20413;-89
2022/10/05 06:30:54;;;;;;;2.17;0.85;;;;;;;11.23;100.00;98965.34;4999920;28;20056;-90
2022/10/05 06:33:40;;;;;;;2.85;0.80;;;;;;;10.90;100.00;98940.50;5016005;28;20054;-90
2022/10/05 06:36:10;;;;;;;2.60;0.90;;;;;;;10.80;100.00;98887.06;5025280;28;20049;-89
2022/10/05 06:39:26;;;;;;;1.88;0.98;;;;;;;11.14;100.00;98950.25;5017405;28;20400;-89
2022/10/05 06:42:26;;;;;;;2.72;1.00;;;;;;;11.02;100.00;98907.41;5019002;28;20064;-88
2022/10/05 06:45:16;;;;;;;0.90;0.80;;;;;;;11.04;100.00;98954.44;5004961;28;20050;-89
2022/10/05 06:47:53;;;;;;;2.70;1.02;;;;;;;11.40;100.00;98959.78;5015664;28;20511;-86
2022/10/05 06:50:41;;;;;;;2.85;0.90;;;;;;;11.74;100.00;98956.59;5018680;28;20057;-87
2022/10/05 06:53:34;;;;;;;2.15;0.80;;;;;;;11.89;100.00;98970.38;5006804;28;20053;-86
2022/10/05 06:56:32;;;;;;;3.15;1.02;;;;;;;11.89;100.00;98952.84;5004139;28;20108;-86
2022/10/05 06:59:37;;;;;;;1.23;0.80;;;;;;;11.55;100.00;98886.25;4997665;28;20061;-85
2022/10/05 07:02:44;;;;;;;1.40;0.80;;;;;;;12.13;100.00;98958.16;4992292;28;20053;-87
2022/10/05 07:05:41;;;;;;;1.85;0.90;;;;;;;12.21;100.00;98965.47;4993663;28;20412;-87
2022/10/05 07:08:10;;;;;;;1.90;0.80;;;;;;;12.29;100.00;98970.19;4986456;28;20052;-86
2022/10/05 07:11:08;;;;;;;4.65;1.55;;;;;;;12.10;100.00;98913.78;5011840;28;20593;-86
2022/10/05 07:13:53;;;;;;;3.70;1.00;;;;;;;12.45;100.00;98969.91;4993255;28;20064;-90
2022/10/05 07:16:47;;;;;;;;;;;;;;;12.49;100.00;98959.03;5027110;28;20496;-89
2022/10/05 07:19:14;;;;;;;5.32;1.10;;;;;;;12.28;100.00;98968.50;5009384;28;19991;-90
2022/10/05 07:22:00;;;;;;;1.77;0.85;;;;;;;12.14;100.00;98945.88;5027360;28;20046;-89
2022/10/05 07:25:03;;;;;;;1.25;0.80;;;;;;;12.36;100.00;98989.78;5014762;28;20113;-92
2022/10/05 07:28:22;;;;;;;4.32;1.20;;;;;;;12.43;100.00;98967.38;5015731;28;20076;-92
2022/10/05 07:31:11;;;;;;;4.22;1.08;;;;;;;12.40;100.00;98972.00;4982962;28;20088;-90
2022/10/05 07:33:59;;;;;;;2.30;0.95;;;;;;;12.11;100.00;98954.81;5036010;28;20033;-86
2022/10/05 07:39:36;;;;;;;3.00;1.02;;;;;;;12.26;100.00;98947.59;5015003;28;20049;-90
2022/10/05 07:42:42;;;;;;;1.02;0.80;;;;;;;12.46;100.00;98976.81;5021693;28;20514;-87
2022/10/05 07:45:31;;;;;;;2.13;0.90;;;;;;;12.22;100.00;98930.41;5014694;28;20105;-90
2022/10/05 07:48:12;;;;;;;2.40;1.20;;;;;;;12.23;100.00;98944.38;5005764;28;20050;-90
2022/10/05 07:51:09;;;;;;;3.33;1.15;;;;;;;12.48;100.00;98988.88;5003541;28;20049;-91
2022/10/05 07:53:50;;;;;;;2.53;1.10;;;;;;;12.17;100.00;98943.03;5003318;28;20065;-90
2022/10/05 07:56:39;;;;;;;0.98;0.70;;;;;;;12.06;100.00;98925.44;5014664;28;20112;-90
2022/10/05 07:59:36;;;;;;;2.38;0.90;;;;;;;11.99;100.00;98924.22;5017815;28;20049;-90
2022/10/05 08:02:16;;;;;;;2.92;0.90;;;;;;;12.26;100.00;98963.34;5015830;28;20061;-91
2022/10/05 08:05:08;;;;;;;2.33;0.90;;;;;;;12.15;100.00;98977.25;5023391;28;20088;-92
2022/10/05 08:08:10;;;;;;;2.28;0.80;;;;;;;12.26;100.00;98994.84;5031565;28;20366;-91
2022/10/05 08:11:09;;;;;;;1.10;0.70;;;;;;;12.16;100.00;99012.19;5009774;28;20046;-91
2022/10/05 08:14:09;;;;;;;3.70;0.90;;;;;;;12.06;100.00;99014.63;5018322;28;20034;-91
2022/10/05 08:16:54;;;;;;;2.63;0.90;;;;;;;12.08;100.00;99007.50;5033921;28;20052;-91
2022/10/05 08:20:01;;;;;;;3.22;1.10;;;;;;;12.28;100.00;99034.09;5006920;28;20046;-91
2022/10/05 08:22:48;;;;;;;2.40;1.00;;;;;;;12.22;100.00;99040.63;5008590;28;20050;-86
2022/10/05 08:25:55;;;;;;;1.40;0.90;;;;;;;12.20;100.00;99041.66;5007926;28;20138;-90
2022/10/05 08:28:45;;;;;;;2.45;1.17;;;;;;;12.19;100.00;99061.00;5020521;28;20041;-91
2022/10/05 08:31:30;;;;;;;1.85;0.90;;;;;;;12.05;100.00;99028.69;5001104;28;20037;-91
2022/10/05 08:34:33;;;;;;;5.15;1.20;;;;;;;12.25;100.00;99058.78;5016264;28;20054;-91
2022/10/05 08:37:22;;;;;;;1.45;0.90;;;;;;;12.28;100.00;99069.03;5025671;28;20061;-90
2022/10/05 08:40:20;;;;;;;2.22;0.90;;;;;;;12.50;100.00;99073.59;5025724;28;20034;-91
2022/10/05 08:43:31;;;;;;;2.17;0.82;;;;;;;12.59;100.00;99084.38;5018639;28;20050;-89
2022/10/05 08:46:28;;;;;;;2.13;1.00;;;;;;;12.62;100.00;99097.28;5004177;28;20049;-86
2022/10/05 08:49:10;;;;;;;2.90;1.00;;;;;;;12.72;100.00;99090.41;5000178;28;20128;-85
2022/10/05 08:51:49;;;;;;;1.38;0.88;;;;;;;12.22;100.00;99026.69;5003032;28;20057;-85
2022/10/05 08:54:38;;;;;;;4.20;1.30;;;;;;;12.53;100.00;99089.09;5004957;28;20109;-86
2022/10/05 08:57:41;;;;;;;3.08;1.00;;;;;;;12.35;100.00;99101.75;5021639;28;20053;-86
2022/10/05 09:00:22;;;;;;;3.53;1.10;;;;;;;12.45;100.00;99098.50;5005997;28;20108;-86
2022/10/05 09:03:04;;;;;;;2.10;0.90;;;;;;;12.13;100.00;99052.59;4993335;28;20050;-86
2022/10/05 09:05:53;;;;;;;3.05;1.10;;;;;;;12.62;100.00;99119.13;5002211;28;20053;-86
2022/10/05 09:08:38;;;;;;;3.40;1.08;;;;;;;12.74;100.00;99133.16;5008035;28;20057;-87
2022/10/05 09:11:19;;;;;;;3.25;1.00;;;;;;;12.27;100.00;99095.38;5009111;28;20042;-87
2022/10/05 09:13:49;;;;;;;2.60;1.13;;;;;;;11.97;100.00;99096.59;5005387;28;20030;-87
2022/10/05 09:16:45;;;;;;;2.05;0.90;;;;;;;11.95;100.00;99114.22;5009344;28;20512;-87
2022/10/05 09:19:41;;;;;;;2.08;1.00;;;;;;;12.27;100.00;99138.22;5026464;28;20140;-87
2022/10/05 09:22:29;;;;;;;2.92;0.90;;;;;;;12.21;100.00;99135.19;5014391;28;20054;-86
2022/10/05 09:25:02;;;;;;;1.98;0.90;;;;;;;12.11;100.00;99134.97;5041925;28;20487;-88
2022/10/05 09:27:34;;;;;;;3.00;0.85;;;;;;;12.05;100.00;99124.91;5010494;28;20608;-86
2022/10/05 09:30:23;;;;;;;1.05;0.80;;;;;;;12.36;100.00;99134.13;5009720;28;20054;-87
2022/10/05 09:33:05;;;;;;;2.10;0.90;;;;;;;12.38;100.00;99140.09;5007162;28;20050;-86
2022/10/05 09:35:59;;;;;;;2.65;1.20;;;;;;;12.50;100.00;99157.59;5009529;28;20105;-87
2022/10/05 09:39:03;;;;;;;3.47;1.45;;;;;;;12.31;100.00;99159.84;5018331;28;20034;-92
2022/10/05 09:41:50;;;;;;;2.45;0.90;;;;;;;12.39;100.00;99154.88;5027966;28;20085;-91
2022/10/05 09:44:52;;;;;;;2.38;0.90;;;;;;;12.22;100.00;99157.88;5020530;28;20068;-91
2022/10/05 09:47:58;;;;;;;1.92;0.88;;;;;;;12.19;100.00;99153.66;5020500;28;20065;-90
2022/10/05 09:50:40;;;;;;;1.40;0.75;;;;;;;11.93;100.00;99151.06;5017682;28;20038;-91
2022/10/05 09:54:10;;;;;;;1.17;0.90;;;;;;;12.02;100.00;99127.75;5020265;28;20105;-89
2022/10/05 09:57:13;;;;;;;4.93;0.90;;;;;;;12.45;100.00;99164.13;5013299;28;20050;-91
2022/10/05 10:00:31;;;;;;;3.55;0.90;;;;;;;12.69;100.00;99166.78;5035055;28;20033;-90
2022/10/05 10:03:43;;;;;;;4.20;0.90;;;;;;;12.71;100.00;99149.13;5021846;28;20046;-92
2022/10/05 10:06:35;;;;;;;3.67;1.05;;;;;;;12.38;100.00;99144.47;5011047;28;20097;-91
2022/10/05 10:09:27;;;;;;;3.10;1.10;;;;;;;12.28;100.00;99124.13;5035987;28;20041;-92
2022/10/05 10:12:28;;;;;;;1.50;0.80;;;;;;;12.75;100.00;99150.59;5020649;28;20056;-91
2022/10/05 10:15:39;;;;;;;1.95;0.90;;;;;;;12.90;100.00;99177.53;5024798;28;20044;-91
2022/10/05 10:18:41;;;;;;;3.03;0.95;;;;;;;12.71;100.00;99188.53;5008985;28;20034;-93
2022/10/05 10:22:03;;;;;;;3.30;0.90;;;;;;;12.91;100.00;99177.44;5016551;28;20038;-90
2022/10/05 10:25:17;;;;;;;5.70;1.00;;;;;;;12.66;100.00;99143.38;5031071;28;20484;-84
2022/10/05 10:27:56;;;;;;;1.42;0.77;;;;;;;12.88;100.00;99167.13;4972821;28;20060;-85
2022/10/05 10:30:57;;;;;;;2.03;0.90;;;;;;;13.02;100.00;99174.03;5005592;28;20377;-86
2022/10/05 10:34:00;;;;;;;0.93;0.80;;;;;;;13.13;100.00;99186.38;5012988;28;20484;-92
2022/10/05 10:37:35;;;;;;;2.58;1.25;;;;;;;13.23;100.00;99194.44;5020993;28;20029;-92
2022/10/05 10:40:24;;;;;;;1.63;0.90;;;;;;;12.92;100.00;99204.53;4956256;28;20036;-90
2022/10/05 10:43:28;;;;;;;2.53;1.05;;;;;;;13.12;100.00;99208.38;5035791;28;20034;-91
2022/10/05 10:46:27;;;;;;;1.63;0.80;;;;;;;13.07;100.00;99213.13;5010169;28;20057;-90
2022/10/05 10:49:30;;;;;;;1.30;0.82;;;;;;;12.97;100.00;99209.47;5035150;28;20034;-90
2022/10/05 10:52:39;;;;;;;2.33;0.90;;;;;;;12.93;100.00;99208.03;5021110;28;20046;-91
2022/10/05 10:55:29;;;;;;;2.13;1.00;;;;;;;12.96;100.00;99200.75;5021191;28;20033;-91
2022/10/05 10:58:47;;;;;;;2.15;0.90;;;;;;;13.03;100.00;99217.75;5030970;28;20038;-92
2022/10/05 11:01:31;;;;;;;1.05;0.77;;;;;;;13.03;100.00;99219.53;5028456;28;20128;-92
2022/10/05 11:04:34;;;;;;;2.65;0.90;;;;;;;13.20;100.00;99207.81;5035486;28;20030;-93
2022/10/05 11:08:02;;;;;;;2.17;0.93;;;;;;;13.20;100.00;99219.16;5010076;28;20074;-92
2022/10/05 11:11:13;;;;;;;3.53;0.93;;;;;;;13.30;100.00;99235.94;4956718;29;20087;-92
2022/10/05 11:14:15;;;;;;;2.50;1.25;;;;;;;13.14;100.00;99229.25;5021803;28;20054;-91
2022/10/05 11:17:30;;;;;;;1.13;0.82;;;;;;;13.27;100.00;99220.38;5019661;28;20034;-92
2022/10/05 11:20:39;;;;;;;1.13;0.80;;;;;;;13.14;100.00;99210.84;5020334;28;20034;-91
2022/10/05 11:23:48;;;;;;;1.92;0.80;;;;;;;13.37;100.00;99225.84;5033814;28;20097;-90
2022/10/05 11:26:50;;;;;;;2.35;1.02;;;;;;;13.21;100.00;99226.09;5020407;28;20033;-92
2022/10/05 11:30:00;;;;;;;2.22;0.80;;;;;;;13.59;100.00;99232.97;5027523;28;20021;-91
2022/10/05 11:32:56;;;;;;;2.58;0.90;;;;;;;13.55;100.00;99226.28;5023965;28;20114;-93
2022/10/05 11:35:46;;;;;;;1.13;0.80;;;;;;;13.15;100.00;99226.53;5019207;28;20114;-92
2022/10/05 11:38:54;;;;;;;2.92;0.80;;;;;;;13.64;100.00;99233.47;5017910;28;20045;-90
2022/10/05 11:42:04;;;;;;;1.00;0.80;;;;;;;13.56;100.00;99232.38;5018325;28;20048;-89
2022/10/05 11:45:01;;;;;;;4.32;0.90;;;;;;;13.75;100.00;99232.69;4985954;28;20054;-88
2022/10/05 11:47:34;;;;;;;6.07;1.10;;;;;;;12.94;100.00;99202.63;5003671;28;20063;-90
2022/10/05 11:50:22;;;;;;;4.47;1.08;;;;;;;13.19;100.00;99212.22;5008762;28;20139;-91
2022/10/05 11:53:28;;;;;;;2.45;0.90;;;;;;;13.60;100.00;99239.09;5012892;28;20034;-92
2022/10/05 11:56:18;;;;;;;3.28;1.00;;;;;;;13.11;100.00;99217.19;5013411;28;20459;-90
2022/10/05 11:59:19;;;;;;;1.73;0.82;;;;;;;13.54;100.00;99243.00;4994978;28;20054;-89
2022/10/05 12:02:12;;;;;;;3.33;0.90;;;;;;;13.44;100.00;99244.66;5012332;28;20064;-89
2022/10/05 12:04:57;;;;;;;6.07;1.65;;;;;;;13.30;100.00;99235.09;5006614;28;20112;-89
2022/10/05 12:07:59;;;;;;;3.92;0.95;;;;;;;13.22;100.00;99230.38;4995173;28;20108;-88
2022/10/05 12:10:45;;;;;;;2.58;1.08;;;;;;;13.65;100.00;99231.69;4998974;28;20116;-88
2022/10/05 12:13:12;;;;;;;4.78;1.08;;;;;;;13.35;100.00;99221.63;4995548;28;20073;-89
2022/10/05 12:16:03;;;;;;;5.60;1.05;;;;;;;13.72;100.00;99229.44;4994952;28;20109;-90
2022/10/05 12:18:30;;;;;;;2.35;0.90;;;;;;;13.51;100.00;99231.88;4995474;28;20054;-90
2022/10/05 12:21:21;;;;;;;4.35;1.10;;;;;;;13.71;100.00;99227.78;4991746;28;20570;-90
2022/10/05 12:24:14;;;;;;;2.33;0.90;;;;;;;13.82;100.00;99214.66;4982349;28;20057;-91
2022/10/05 12:26:54;;;;;;;3.97;1.00;;;;;;;13.68;100.00;99206.00;4994186;28;20058;-89
2022/10/05 12:30:05;;;;;;;3.08;1.00;;;;;;;13.97;100.00;99204.75;4994864;28;20050;-89
2022/10/05 12:32:40;;;;;;;5.20;1.15;;;;;;;14.05;100.00;99211.09;4917960;29;20409;-92
2022/10/05 12:35:21;;;;;;;2.80;0.93;;;;;;;14.34;100.00;99213.31;4917529;29;20051;-91
2022/10/05 12:38:31;;;;;;;7.43;1.05;;;;;;;14.10;100.00;99221.28;4980221;28;20104;-93
2022/10/05 12:40:57;;;;;;;6.28;1.42;;;;;;;14.35;100.00;99216.78;4991677;28;20120;-91
2022/10/05 12:43:46;;;;;;;4.00;1.33;;;;;;;14.11;100.00;99220.34;4990283;28;20046;-92
2022/10/05 12:46:34;;;;;;;2.75;0.90;;;;;;;14.28;100.00;99211.13;4991186;28;20064;-91
2022/10/05 12:49:17;;;;;;;4.20;1.17;;;;;;;14.35;100.00;99203.59;4994010;28;20054;-92
2022/10/05 12:52:07;;;;;;;4.37;1.17;;;;;;;14.02;100.00;99213.13;4994602;28;20054;-91
2022/10/05 12:54:45;;;;;;;3.50;1.00;;;;;;;14.31;100.00;99215.34;4943957;28;20290;-88
2022/10/05 12:57:41;;;;;;;4.47;1.00;;;;;;;14.57;100.00;99218.56;4994249;28;20400;-91
2022/10/05 13:00:11;;;;;;;4.43;1.02;;;;;;;14.45;100.00;99209.84;4997088;28;20049;-91
2022/10/05 13:02:40;;;;;;;4.43;1.25;;;;;;;14.43;100.00;99230.19;5010851;28;20042;-90
2022/10/05 13:05:10;;;;;;;5.80;1.05;;;;;;;14.22;100.00;99236.16;5000833;28;20057;-92
2022/10/05 13:07:55;;;;;;;3.35;1.00;;;;;;;14.03;100.00;99227.97;4997206;28;20396;-90
2022/10/05 13:10:41;;;;;;;13.15;1.63;;;;;;;13.96;100.00;99240.75;4994625;28;20054;-89